Alva, OK

7:31 AM CDT en Noviembre 01, 2014 (GMT -0500)
Alva Regional | Change Station
CLOSE
Current Station
Aeropuerto
Location: Alva,
Altura: 1473 ft
Estaciones meteorológicas cercanas
Aviso en curso: Freeze Warning

Alt 1473 ft 36.77 °N, 98.67 °W | Updated 21 minutes ago

Parcialmente nublado
Parcialmente nublado
30 ° F
Sensación térmica 23 ° F
N
7
Viento Variable Viento desde SSE

Hoy
Alta -- | Baja -- ° F
--% Posibilidad de precipitaciones
Ayer
Alta -- | Baja -- ° F
Precip. -- pul
7:58 AM 6:37 PM
Gibosa creciente, 66% visible
Presión 30.38 pul
Visibilidad 10.0 Millas
Nubes Despejado
Vientos helados 23 ° F
Punto de rocío 23 ° F
Humedad 75%
Precipitaciones 0.00 pul
Espesor de la nieve No disponible.
UV 0 de una escala de 12
Polen .40 de una escala de 12
Calidad del aire No disponible.
Flu Activity No disponible.
METAR KAVK 011210Z AUTO 16006KT 10SM CLR M01/M05 A3038 RMK AO2

More Conditions Fewer Conditions

Presión 30.38 pul
Visibilidad 10.0 Millas
Nubes Despejado
Vientos helados 23 ° F
Punto de rocío 23 ° F
Humedad 75%
Precipitaciones 0.00 pul
Espesor de la nieve No disponible.
UV 0 de una escala de 12
Polen .40 de una escala de 12
Calidad del aire No disponible.
Flu Activity No disponible.
METAR KAVK 011210Z AUTO 16006KT 10SM CLR M01/M05 A3038 RMK AO2

More Conditions Fewer Conditions

10-Day Weather Forecast

Almanac

Astronomía

Nov. 01, 2014 Salida Puesta
Hora real
Crepúsculo civil
Crepúsculo náutico
Crepúsculo astronómico
Luna
Horas de luz
Horas de luz
Tomorrow will be .
, % of the Moon is Illuminated

Extremos de hoy

Máximos del estado Bajos del estado

Community

WunderPhotos

Upload Photos

1,766,912 ¡fotos cargadas!

WunderBlogs® & News

Nearby

Calidad del aire

  Calidad del aire Índice AQ Contaminante
Not available.

Grosos de nieve

Estación Profundido Altura

Actividad de terremotos

Ciudad Distance Mag. Tiempo y dato
Magnitud mínima muestra es 2,5.

Temperaturas de aguas costeras

Lugar Temperatura

Estaciones meteorológicas cercanas